Accueil
METAR-TAF:

METAR-TAF

Aéroports :

Memmingen, Allemagne

latitude: 47-59-33N, longitude: 10-14-37E, altitude: 633 m

Observation

Le bulletin a été fait il y a 25 minutes, à 00:50 UTC
Vent 2 kt de sud-est
Température 0°C
Humidité 100%
Pression 1006 hPa
Visibilité: 0450 m

METAR: EDJA 010050Z AUTO 14002KT 0500 0450 R06/0650U // BKN004/// BKN100/// 00/00 Q1006

Heure: 02:15 (01:15 UTC)

Prévision

Le bulletin a été fait il y a 3 heures et 43 minutes, à 21:32 UTC
Prévision valable du 29 à 21 UTC au 01 à 03 UTC
Vent 3 kt de direction variable
Visibilité: 2500 m
Nuages fragmentés à une hauteur de 200 ft
brume
Temporairement
du 29 à 23 UTC au 01 à 03 UTC
Visibilité: 0500 m
à une hauteur de 100 ft
brouillard,

TAF: EDJA 292132Z 2921/0103 VRB03KT 2500 BR BKN002 TEMPO 2923/0103 0500 FG VV001

Observations et prévisions météorologiques de plus de 4000 aéroports (messages METAR et TAF).

Les stations disponibles sont représentées par des disques jaunes et rouges sur la carte.

Passer la souris dessus pour voir le nom de la station.

Cliquer dessus pour voir les observations et prévisions météorologiques.

Pour changer de carte: cliquez sur les boutons verts avec une croix noire pour zoomer, sur le bouton vert avec un tiret pour effectuer un zoom arrière, ou sur les flèches vertes pour les cartes adjacentes.


METAR-TAF: